Triathlon du Salagou - 11/06/2016

Kids 2


Pl Do. Nom - Surname Prénom - Name S-Cat /cat Club - Team TEMPS - Time /sx
1 1201 CAMBERLEIN--VALFREY ADRIEN MPU 1 AQUASPORT SAINT CYPRIEN 0:10:24.27 1
2 1202 BENAREAU VICTOR MPU 2 AQUASPORT SAINT CYPRIEN 0:11:25.79 2
3 1228 BATAILLE ALEXANDRE MPU 3 MONTPELLIER AGGLO TRIATHLON 0:12:10.35 3
4 1203 HUGER RAPHAËL MPU 4 AQUASPORTS St Cyprien 0:12:23.06 4
5 1237 DAL CERRO RÉMI MPU 5 SALINDRES TRIATHLON 0:12:29.46 5
6 1223 OLIPHAR JOACKIM MPU 6 MAT 0:12:36.26 6
7 1286 DELORD PIERRE MPU 7 MONTPELLIER TRIATHLON 0:12:37.90 7
8 1221 VALLET SACHA MPU 8 LOUS MESCLATS BSV 0:12:49.54 8
9 1206 JONES ARTHUR MPU 9 ASPTT 0:12:50.18 9
10 1209 PERRIN RUDY MPU 10 DRAGUIGNAN TRIATHLON 0:12:59.71 10
11 1213 GUTIERREZ YANIS MPU 11 LOUPIAN TRI NATURE 0:13:20.07 11
12 1205 ABADIE GUILHEM MPU 12 AS MURET TRIATHLON 0:13:21.79 12
13 1225 BARGEL MAËL MPU 13 MAT MONTPELLIER 0:13:23.85 13
14 1304 PONS GABRIEL MPU 14 ATHL?TIQUE CLUB CLERMONTAIS 0:13:24.78 14
15 1239 FRAYSSINET ZÉLIE FPU 1 The Pouncho 0:13:27.49 1
16 1255 JOHANSSON EDNA FPU 2   0:13:37.16 2
17 1212 FONTA PAULINE FPU 3 LOUPIAN TRI NATURE 0:13:39.93 3
18 1261 BRUN CHARLIE MPU 15   0:13:48.66 15
19 1263 QUERE PAUL MPU 16   0:13:48.88 16
20 1218 EGIZIANO LOANE FPU 4 LOUPIAN TRI NATURE 0:13:50.08 4
21 1245 BONIOL ALEXY MPU 17   0:14:01.42 17
22 1235 MILOT TIMOTHE MPU 18 ROC DE LA LEGUE 0:14:08.73 18
23 1287 SOULIER MAEL MPU 19   0:14:13.71 19
24 1220 MOURGUES PIERRE MPU 20 LOUPIAN TRI NATURE 0:14:14.01 20
25 1217 BRUTSAERT MAXIME MPU 21 LOUPIAN TRI NATURE 0:14:14.06 21
26 1244 QUERE ANTOINE MPU 22   0:14:22.05 22
27 1265 FERRIS THEO MPU 23   0:14:32.23 23
28 1282 LECLERC MYRIAM FPU 5   0:14:35.09 5
29 1279 LAMBOLEY SASMA MPU 24   0:14:40.07 24
30 1211 GABAUDAN GIULLA FPU 6 LOUPIAN TRI NATURE 0:14:47.18 6
31 1252 LAGET ABEL MPU 25   0:14:51.31 25
32 1214 DOMINGUEZ LEA FPU 7 LOUPIAN TRI NATURE 0:14:53.02 7
33 1258 THOMAS ERIN FPU 8   0:14:55.27 8
34 1267 BONNET ISAAC MPU 26   0:14:58.78 26
35 1249 DA COSTA JOAQUIM MPU 27   0:15:05.21 27
36 1224 PHILIBERT NATHAN MPU 28 MAT 0:15:05.90 28
37 1288 MAZET ADAM MPU 29 MONTPELLIER TRIATHLON 0:15:06.02 29
38 1233 BOSCH LOIS MPU 30 neant 0:15:13.39 30
39 1204 BITARD EDEN MPU 31 AS LIBOURNE TRIATHLON 0:15:15.65 31
40 1283 LECLERC DEBORAH FPU 9   0:15:17.98 9
41 1274 MASSON TOM MPU 32   0:15:24.74 32
42 1222 JOUTARD MARIUS MPU 33 MAT 0:15:27.28 33
43 1230 CANATO LOUISE FPU 10 MONTPELLIER AGGLOMÉRATION TRIATHLON 0:15:30.64 10
44 1277 FABRE KENZO MPU 34   0:15:30.72 34
45 1284 BASTIDE PIERRE MPU 35   0:15:33.64 35
46 1248 TILMONT ROBINSON MPU 36   0:15:37.56 36
47 1241 CUBELES ESTEBAN MPU 37 TOAC TRIATHLON 0:15:42.59 37
48 1208 SARNETTE EMMA FPU 11 CAVAILLON TRIATHLON CLUB 0:15:56.10 11
49 1238 MASSEBEUF EMILIE FPU 12 SALINDRES TRIATHLON 0:15:56.86 12
50 1262 ASTIER RAPHAËL MPU 38   0:16:09.13 38
51 1253 AZEMA MILO MPU 39   0:16:21.38 39
52 1229 PERRIER MAX MPU 40 MONTPELLIER AGGLO TRIATHLON 0:16:29.39 40
53 1247 DE LAGARDE JULIE FPU 13   0:16:29.60 13
54 1376 MARCHAND ARTHUR MPU 41   0:16:33.33 41
55 1219 FONTENAY NOAH MPU 42 LOUPIAN TRI NATURE 0:16:36.13 42
56 1272 MARCHAND EVA FPU 14   0:16:47.47 14
57 1250 EVESQUE MATHYS MPU 43   0:16:51.26 43
58 1285 FEVET LUCIE FPU 15   0:16:52.57 15
59 1271 GRIBIAS-POUJOL EMMA FPU 16   0:16:54.00 16
60 1231 CANATO CHARLOTTE FPU 17 MONTPELLIER AGGLOMÉRATION TRIATHLON 0:17:12.92 17
61 1215 BROS ALEXIS MPU 44 LOUPIAN TRI NATURE 0:17:25.63 44
62 1269 GAVARRY LUC MPU 45   0:17:33.62 45
63 1259 DUCHEMIN LEANNE FPU 18   0:17:39.91 18
64 1273 BONNANS RÉGIS MPU 46   0:17:45.31 46
65 1278 DUPONT FAUVEL PAUL MPU 47   0:18:00.51 47
66 1268 SELAS ALBAN MPU 48   0:18:06.49 48
67 1281 HUBNER TIAGO MPU 49   0:18:07.33 49
68 1264 VALETTE THÉO MPU 50   0:18:14.20 50
69 1280 IBANEZ LUIS MPU 51   0:18:16.40 51
70 1226 DAUCE ADRIEN MPU 52 MAT MONTPELLIER 0:18:21.83 52
71 1257 BOSSIS ELÉONORE FPU 19   0:18:30.44 19
72 1275 MUNOZ TIAGO MPU 53   0:18:34.86 53
73 1270 RAVERDY ANTOINE MPU 54   0:18:43.37 54
74 1232 BELMEKKI NISRINE FPU 20 MONTPELLIER TRIATHLON 0:19:34.54 20
75 1251 TILLET EDEN FPU 21   0:20:41.33 21
76 1254 GROC MAEVA FPU 22   0:20:58.43 22
77 1132 MARCHAND ALICE FPU 23   0:30:58.43 23
78 1207 PONS ROMAIN MPU 55 ATHLETIC CLUB CLERMONTAIS 0:31:49.66 55
79 1227 SAFI SARAH FPU 24 MAT MONTPELLIER 0:33:06.55 24